createdAt,value
2023-02-12T00:01:29.333Z,4.57
2023-02-12T00:03:58.060Z,4.47
2023-02-12T00:06:26.509Z,4.62
2023-02-12T00:08:56.250Z,4.47
2023-02-12T00:11:27.363Z,4.56
2023-02-12T00:13:56.367Z,4.55
2023-02-12T00:16:27.735Z,4.52
2023-02-12T00:18:57.685Z,4.68
2023-02-12T00:21:25.811Z,4.55
2023-02-12T00:23:53.872Z,4.46
2023-02-12T00:26:23.120Z,4.51
2023-02-12T00:28:52.863Z,4.35
2023-02-12T00:31:27.231Z,4.26
2023-02-12T00:33:59.473Z,4.21
2023-02-12T00:36:29.447Z,4.28
2023-02-12T00:38:58.074Z,4.68
2023-02-12T00:41:26.464Z,4.46
2023-02-12T00:43:54.453Z,4.14
2023-02-12T00:46:22.472Z,4.02
2023-02-12T00:48:50.813Z,3.94
2023-02-12T00:51:21.572Z,3.88
2023-02-12T00:53:49.531Z,3.95
2023-02-12T00:56:17.613Z,3.92
2023-02-12T00:58:45.558Z,4.04
2023-02-12T01:01:13.615Z,3.87
2023-02-12T01:03:41.703Z,3.71
2023-02-12T01:06:09.611Z,3.70
2023-02-12T01:08:37.469Z,3.61
2023-02-12T01:11:06.258Z,3.63
2023-02-12T01:13:35.825Z,3.61
2023-02-12T01:16:19.176Z,3.79
2023-02-12T01:18:47.712Z,4.03
2023-02-12T01:21:19.400Z,4.08
2023-02-12T01:23:48.679Z,3.75
2023-02-12T01:26:17.926Z,3.53
2023-02-12T01:28:50.765Z,3.42
2023-02-12T01:31:22.349Z,3.75
2023-02-12T01:33:54.286Z,3.48
2023-02-12T01:36:22.508Z,3.43
2023-02-12T01:38:50.981Z,3.42
2023-02-12T01:41:25.494Z,3.41
2023-02-12T01:44:21.191Z,3.53
2023-02-12T01:46:55.637Z,3.39
2023-02-12T01:49:38.550Z,3.77
2023-02-12T01:52:25.183Z,3.51
2023-02-12T01:54:57.310Z,3.31
2023-02-12T01:57:28.876Z,3.36
2023-02-12T02:00:01.004Z,3.47
2023-02-12T02:02:31.823Z,3.31
2023-02-12T02:05:03.111Z,3.32
2023-02-12T02:07:31.745Z,3.16
2023-02-12T02:10:00.339Z,3.20
2023-02-12T02:12:49.729Z,3.49
2023-02-12T02:15:18.288Z,3.26
2023-02-12T02:17:51.730Z,3.35
2023-02-12T02:20:25.539Z,3.19
2023-02-12T02:23:19.428Z,3.27
2023-02-12T02:25:58.236Z,3.19
2023-02-12T02:28:43.298Z,3.20
2023-02-12T02:31:43.889Z,3.29
2023-02-12T02:34:55.646Z,3.53
2023-02-12T02:37:43.853Z,3.19
2023-02-12T02:40:18.395Z,3.16
2023-02-12T02:42:58.804Z,3.09
2023-02-12T02:45:43.814Z,3.02
2023-02-12T02:48:18.945Z,3.10
2023-02-12T02:50:53.331Z,3.17
2023-02-12T02:53:48.722Z,3.04
2023-02-12T02:56:20.377Z,3.15
2023-02-12T02:58:57.100Z,3.11
2023-02-12T03:01:36.286Z,3.02
2023-02-12T03:04:08.029Z,3.02
2023-02-12T03:06:55.233Z,3.02
2023-02-12T03:09:34.976Z,2.95
2023-02-12T03:12:18.674Z,3.11
2023-02-12T03:15:03.192Z,3.25
2023-02-12T03:17:36.231Z,3.18
2023-02-12T03:20:15.999Z,3.27
2023-02-12T03:22:51.630Z,3.14
2023-02-12T03:25:28.793Z,3.12
2023-02-12T03:28:19.577Z,3.01
2023-02-12T03:31:19.514Z,3.03
2023-02-12T03:34:12.148Z,3.04
2023-02-12T03:36:57.389Z,2.98
2023-02-12T03:40:06.099Z,2.91
2023-02-12T03:42:45.939Z,3.02
2023-02-12T03:45:29.686Z,2.92
2023-02-12T03:48:10.360Z,3.27
2023-02-12T03:51:11.210Z,3.41
2023-02-12T03:53:39.250Z,3.45
2023-02-12T03:56:13.348Z,3.47
2023-02-12T03:58:43.338Z,3.13
2023-02-12T04:01:12.771Z,3.00
2023-02-12T04:03:41.966Z,2.83
2023-02-12T04:06:36.470Z,3.10
2023-02-12T04:09:07.702Z,3.31
2023-02-12T04:11:55.214Z,3.22
2023-02-12T04:14:50.432Z,2.98
2023-02-12T04:17:27.149Z,2.62
2023-02-12T04:20:08.961Z,2.70
2023-02-12T04:22:51.855Z,2.80
2023-02-12T04:25:41.361Z,2.98
2023-02-12T04:28:15.326Z,3.08
2023-02-12T04:31:03.488Z,3.01
2023-02-12T04:33:48.835Z,2.76
2023-02-12T04:36:28.833Z,2.66
2023-02-12T04:39:02.467Z,2.58
2023-02-12T04:41:32.034Z,2.45
2023-02-12T04:44:14.368Z,2.45
2023-02-12T04:46:42.369Z,2.44
2023-02-12T04:49:15.509Z,2.51
2023-02-12T04:51:44.289Z,2.44
2023-02-12T04:54:12.789Z,2.56
2023-02-12T04:56:40.868Z,2.64
2023-02-12T04:59:09.537Z,2.54
2023-02-12T05:01:39.290Z,2.83
2023-02-12T05:04:08.380Z,2.86
2023-02-12T05:06:37.761Z,2.71
2023-02-12T05:09:07.152Z,2.60
2023-02-12T05:11:35.164Z,2.55
2023-02-12T05:14:03.193Z,2.43
2023-02-12T05:16:31.094Z,2.50
2023-02-12T05:18:58.899Z,2.52
2023-02-12T05:21:26.820Z,2.55
2023-02-12T05:23:54.817Z,2.61
2023-02-12T05:26:23.033Z,2.54
2023-02-12T05:28:50.900Z,2.48
2023-02-12T05:31:21.656Z,2.52
2023-02-12T05:33:50.409Z,2.43
2023-02-12T05:36:21.214Z,2.48
2023-02-12T05:38:50.141Z,2.70
2023-02-12T05:41:24.188Z,2.54
2023-02-12T05:43:52.176Z,2.51
2023-02-12T05:46:21.974Z,2.48
2023-02-12T05:48:50.426Z,2.49
2023-02-12T05:51:26.960Z,2.40
2023-02-12T05:54:01.371Z,2.46
2023-02-12T05:56:31.701Z,2.50
2023-02-12T05:59:06.641Z,2.47
2023-02-12T06:01:37.700Z,2.47
2023-02-12T06:04:08.396Z,2.41
2023-02-12T06:06:36.800Z,2.52
2023-02-12T06:09:04.623Z,2.58
2023-02-12T06:11:32.408Z,2.57
2023-02-12T06:14:03.901Z,2.59
2023-02-12T06:16:33.337Z,2.66
2023-02-12T06:19:03.682Z,2.89
2023-02-12T06:21:32.425Z,3.12
2023-02-12T06:24:00.661Z,2.98
2023-02-12T06:26:28.799Z,2.71
2023-02-12T06:28:56.986Z,2.62
2023-02-12T06:31:33.879Z,2.70
2023-02-12T06:34:05.185Z,2.67
2023-02-12T06:36:33.841Z,2.76
2023-02-12T06:39:03.152Z,2.61
2023-02-12T06:41:31.099Z,2.71
2023-02-12T06:43:59.072Z,2.78
2023-02-12T06:46:26.996Z,2.73
2023-02-12T06:48:57.051Z,2.64
2023-02-12T06:51:26.384Z,2.69
2023-02-12T06:53:55.728Z,2.66
2023-02-12T06:56:25.105Z,2.78
2023-02-12T06:58:55.985Z,2.78
2023-02-12T07:01:29.624Z,2.78
2023-02-12T07:04:02.599Z,3.02
2023-02-12T07:06:33.929Z,3.13
2023-02-12T07:09:03.406Z,3.10
2023-02-12T07:11:36.161Z,3.16
2023-02-12T07:14:07.168Z,3.16
2023-02-12T07:16:35.123Z,3.19
2023-02-12T07:19:03.155Z,3.23
2023-02-12T07:21:32.297Z,3.28
2023-02-12T07:24:00.425Z,3.40
2023-02-12T07:26:28.283Z,3.47
2023-02-12T07:28:58.788Z,3.62
2023-02-12T07:31:26.834Z,3.69
2023-02-12T07:33:56.870Z,3.78
2023-02-12T07:36:26.889Z,3.80
2023-02-12T07:38:56.134Z,3.93
2023-02-12T07:41:26.726Z,4.05
2023-02-12T07:44:14.229Z,4.06
2023-02-12T07:46:49.347Z,4.40
2023-02-12T07:49:20.676Z,4.73
2023-02-12T07:51:49.994Z,4.74
2023-02-12T07:54:18.461Z,5.15
2023-02-12T07:56:49.044Z,5.87
2023-02-12T07:59:18.919Z,7.51
2023-02-12T08:01:49.359Z,9.58
2023-02-12T08:04:20.634Z,11.42
2023-02-12T08:06:51.527Z,12.96
2023-02-12T08:09:23.323Z,14.78
2023-02-12T08:11:51.792Z,15.62
2023-02-12T08:14:22.373Z,16.13
2023-02-12T08:16:50.933Z,16.26
2023-02-12T08:19:23.936Z,17.25
2023-02-12T08:21:55.511Z,17.02
2023-02-12T08:24:24.697Z,17.79
2023-02-12T08:26:52.926Z,18.49
2023-02-12T08:29:24.339Z,18.14
2023-02-12T08:32:00.556Z,17.06
2023-02-12T08:34:31.844Z,15.77
2023-02-12T08:37:00.509Z,14.40
2023-02-12T08:39:30.236Z,12.83
2023-02-12T08:41:59.650Z,11.60
2023-02-12T08:44:28.353Z,10.96
2023-02-12T08:46:56.222Z,10.69
2023-02-12T08:49:29.229Z,10.36
2023-02-12T08:51:58.449Z,10.42
2023-02-12T08:54:29.269Z,10.23
2023-02-12T08:56:58.881Z,10.28
2023-02-12T08:59:27.352Z,10.37
2023-02-12T09:01:55.726Z,10.16
2023-02-12T09:04:27.252Z,10.38
2023-02-12T09:06:56.229Z,10.57
2023-02-12T09:09:24.372Z,10.44
2023-02-12T09:11:52.224Z,10.65
2023-02-12T09:14:24.652Z,10.48
2023-02-12T09:16:54.381Z,10.57
2023-02-12T09:19:22.519Z,10.69
2023-02-12T09:21:56.114Z,10.93
2023-02-12T09:24:27.885Z,11.14
2023-02-12T09:26:56.552Z,11.21
2023-02-12T09:29:24.742Z,11.30
2023-02-12T09:31:52.861Z,11.45
2023-02-12T09:34:20.920Z,11.65
2023-02-12T09:36:48.789Z,11.71
2023-02-12T09:39:16.655Z,11.69
2023-02-12T09:42:15.580Z,11.73
2023-02-12T09:44:46.411Z,11.85
2023-02-12T09:47:36.490Z,12.07
2023-02-12T09:50:07.731Z,12.29
2023-02-12T09:52:37.586Z,12.55
2023-02-12T09:55:06.093Z,12.43
2023-02-12T09:57:37.166Z,12.79
2023-02-12T10:00:32.134Z,12.96
2023-02-12T10:03:06.005Z,13.61
2023-02-12T10:05:43.254Z,13.61
2023-02-12T10:08:41.921Z,13.23
2023-02-12T10:11:21.840Z,13.84
2023-02-12T10:14:10.566Z,14.26
2023-02-12T10:16:44.399Z,14.51
2023-02-12T10:19:30.875Z,14.82
2023-02-12T10:22:19.758Z,15.27
2023-02-12T10:25:24.792Z,15.51
2023-02-12T10:27:55.816Z,14.83
2023-02-12T10:30:32.697Z,15.31
2023-02-12T10:33:29.778Z,15.76
2023-02-12T10:36:36.523Z,16.18
2023-02-12T10:39:18.342Z,16.34
2023-02-12T10:42:01.120Z,16.82
2023-02-12T10:44:29.094Z,17.62
2023-02-12T10:47:01.498Z,18.46
2023-02-12T10:49:32.781Z,18.47
2023-02-12T10:52:42.184Z,18.99
2023-02-12T10:55:28.820Z,19.39
2023-02-12T10:57:58.177Z,21.57
2023-02-12T11:00:33.834Z,21.97
2023-02-12T11:03:13.742Z,23.26
2023-02-12T11:05:44.191Z,23.76
2023-02-12T11:08:32.754Z,24.29
2023-02-12T11:11:26.972Z,23.59
2023-02-12T11:14:07.278Z,25.61
2023-02-12T11:16:39.940Z,26.30
2023-02-12T11:19:19.079Z,26.13
2023-02-12T11:21:47.659Z,25.95
2023-02-12T11:24:28.464Z,24.66
2023-02-12T11:27:30.185Z,24.46
2023-02-12T11:30:10.557Z,25.54
2023-02-12T11:32:38.722Z,26.24
2023-02-12T11:35:26.000Z,25.80
2023-02-12T11:37:57.795Z,26.86
2023-02-12T11:40:28.766Z,27.83
2023-02-12T11:43:00.868Z,28.50
2023-02-12T11:45:37.469Z,27.85
2023-02-12T11:48:36.100Z,28.11
2023-02-12T11:51:09.230Z,29.55
2023-02-12T11:53:42.501Z,27.46
2023-02-12T11:56:13.521Z,25.42
2023-02-12T11:58:41.569Z,26.20
2023-02-12T12:01:16.562Z,25.63
2023-02-12T12:03:56.165Z,27.15
2023-02-12T12:06:29.971Z,27.72
2023-02-12T12:09:03.250Z,27.86
2023-02-12T12:12:08.577Z,29.12
2023-02-12T12:15:09.533Z,28.05
2023-02-12T12:18:25.370Z,28.98
2023-02-12T12:20:57.177Z,29.84
2023-02-12T12:23:36.000Z,30.69
2023-02-12T12:26:19.152Z,28.73
2023-02-12T12:28:51.041Z,30.75
2023-02-12T12:31:54.204Z,31.70
2023-02-12T12:34:26.240Z,27.68
2023-02-12T12:37:15.647Z,27.78
2023-02-12T12:40:02.152Z,28.93
2023-02-12T12:42:56.233Z,29.16
2023-02-12T12:45:41.353Z,29.99
2023-02-12T12:48:24.017Z,30.66
2023-02-12T12:51:30.100Z,30.23
2023-02-12T12:54:00.702Z,29.87
2023-02-12T12:57:10.211Z,28.52
2023-02-12T12:59:47.962Z,28.40
2023-02-12T13:02:53.634Z,28.28
2023-02-12T13:05:43.822Z,27.26
2023-02-12T13:08:36.253Z,27.91
2023-02-12T13:11:46.033Z,27.83
2023-02-12T13:14:23.703Z,26.71
2023-02-12T13:17:23.805Z,28.30
2023-02-12T13:19:54.539Z,29.64
2023-02-12T13:22:44.726Z,30.44
2023-02-12T13:25:36.846Z,31.31
2023-02-12T13:28:10.588Z,30.42
2023-02-12T13:30:50.709Z,33.07
2023-02-12T13:33:27.904Z,32.40
2023-02-12T13:36:00.865Z,31.43
2023-02-12T13:38:54.866Z,29.78
2023-02-12T13:41:23.275Z,31.06
2023-02-12T13:44:33.019Z,29.35
2023-02-12T13:47:13.655Z,31.46
2023-02-12T13:49:50.178Z,31.46
2023-02-12T13:52:37.666Z,31.98
2023-02-12T13:55:24.460Z,33.78
2023-02-12T13:58:29.984Z,33.79
2023-02-12T14:01:01.149Z,33.35
2023-02-12T14:03:31.681Z,33.70
2023-02-12T14:06:18.222Z,33.54
2023-02-12T14:08:54.807Z,33.15
2023-02-12T14:11:26.289Z,34.11
2023-02-12T14:14:01.670Z,33.67
2023-02-12T14:16:29.473Z,34.27
2023-02-12T14:19:34.791Z,33.10
2023-02-12T14:22:24.093Z,31.91
2023-02-12T14:25:16.387Z,32.78
2023-02-12T14:28:13.177Z,31.57
2023-02-12T14:30:41.355Z,31.93
2023-02-12T14:33:11.212Z,32.51
2023-02-12T14:35:44.206Z,31.60
2023-02-12T14:38:12.027Z,32.13
2023-02-12T14:40:47.454Z,32.60
2023-02-12T14:43:54.411Z,31.46
2023-02-12T14:46:25.546Z,31.30
2023-02-12T14:49:07.664Z,31.32
2023-02-12T14:52:13.497Z,30.78
2023-02-12T14:55:13.779Z,30.11
2023-02-12T14:57:42.548Z,29.54
2023-02-12T15:00:21.771Z,29.64
2023-02-12T15:02:55.595Z,29.32
2023-02-12T15:05:31.151Z,27.70
2023-02-12T15:08:22.079Z,27.17
2023-02-12T15:10:55.589Z,27.43
2023-02-12T15:13:23.541Z,27.32
2023-02-12T15:16:31.945Z,27.31
2023-02-12T15:19:02.518Z,26.34
2023-02-12T15:21:33.022Z,25.86
2023-02-12T15:24:12.840Z,25.67
2023-02-12T15:26:53.140Z,25.63
2023-02-12T15:29:26.060Z,25.32
2023-02-12T15:31:55.197Z,25.03
2023-02-12T15:34:27.845Z,24.91
2023-02-12T15:36:59.102Z,24.14
2023-02-12T15:39:28.359Z,23.76
2023-02-12T15:41:56.302Z,22.94
2023-02-12T15:44:32.827Z,22.13
2023-02-12T15:47:08.360Z,21.81
2023-02-12T15:49:38.779Z,21.47
2023-02-12T15:52:25.234Z,20.86
2023-02-12T15:54:53.368Z,20.37
2023-02-12T15:57:24.419Z,19.87
2023-02-12T15:59:55.505Z,19.76
2023-02-12T16:02:33.362Z,19.65
2023-02-12T16:05:04.940Z,19.32
2023-02-12T16:07:37.373Z,19.16
2023-02-12T16:10:06.682Z,18.91
2023-02-12T16:12:38.016Z,18.48
2023-02-12T16:15:06.510Z,18.35
2023-02-12T16:17:37.254Z,18.11
2023-02-12T16:20:19.891Z,17.76
2023-02-12T16:22:50.633Z,17.61
2023-02-12T16:25:20.594Z,17.55
2023-02-12T16:28:07.399Z,17.51
2023-02-12T16:30:42.877Z,17.20
2023-02-12T16:33:36.942Z,17.12
2023-02-12T16:36:31.946Z,16.86
2023-02-12T16:39:06.247Z,16.74
2023-02-12T16:41:56.787Z,16.72
2023-02-12T16:44:27.362Z,16.43
2023-02-12T16:46:58.890Z,16.13
2023-02-12T16:49:27.571Z,16.32
2023-02-12T16:52:19.579Z,16.21
2023-02-12T16:54:47.530Z,16.33
2023-02-12T16:57:15.462Z,16.16
2023-02-12T16:59:45.413Z,15.82
2023-02-12T17:02:15.771Z,15.67
2023-02-12T17:04:43.825Z,15.71
2023-02-12T17:07:24.786Z,15.55
2023-02-12T17:09:52.702Z,15.29
2023-02-12T17:12:21.035Z,15.43
2023-02-12T17:14:49.281Z,15.12
2023-02-12T17:17:17.566Z,15.09
2023-02-12T17:19:45.566Z,15.02
2023-02-12T17:22:24.755Z,15.10
2023-02-12T17:24:53.467Z,15.06
2023-02-12T17:27:21.581Z,15.02
2023-02-12T17:29:49.570Z,14.78
2023-02-12T17:32:17.509Z,14.66
2023-02-12T17:34:48.814Z,14.53
2023-02-12T17:37:18.437Z,14.71
2023-02-12T17:39:46.479Z,14.61
2023-02-12T17:42:14.475Z,14.66
2023-02-12T17:44:42.510Z,14.51
2023-02-12T17:47:10.578Z,14.59
2023-02-12T17:49:40.140Z,14.41
2023-02-12T17:52:08.329Z,14.32
2023-02-12T17:54:36.517Z,14.29
2023-02-12T17:57:04.556Z,14.32
2023-02-12T17:59:32.473Z,14.35
2023-02-12T18:02:00.707Z,14.28
2023-02-12T18:04:28.843Z,14.26
2023-02-12T18:06:57.799Z,14.30
2023-02-12T18:09:25.799Z,14.09
2023-02-12T18:11:53.846Z,14.16
2023-02-12T18:14:21.843Z,14.02
2023-02-12T18:16:49.863Z,13.94
2023-02-12T18:19:17.984Z,14.04
2023-02-12T18:21:45.905Z,13.84
2023-02-12T18:24:13.966Z,13.93
2023-02-12T18:26:42.040Z,13.87
2023-02-12T18:29:10.282Z,13.82
2023-02-12T18:31:38.349Z,13.76
2023-02-12T18:34:06.814Z,13.76
2023-02-12T18:36:35.133Z,13.74
2023-02-12T18:39:03.083Z,13.69
2023-02-12T18:41:33.003Z,13.51
2023-02-12T18:44:00.904Z,13.53
2023-02-12T18:46:31.932Z,13.43
2023-02-12T18:49:01.156Z,13.31
2023-02-12T18:51:36.825Z,13.31
2023-02-12T18:54:08.048Z,13.04
2023-02-12T18:56:38.307Z,13.12
2023-02-12T18:59:06.285Z,13.12
2023-02-12T19:01:37.627Z,13.19
2023-02-12T19:04:08.139Z,13.07
2023-02-12T19:06:41.520Z,13.16
2023-02-12T19:09:11.228Z,12.92
2023-02-12T19:11:39.140Z,12.95
2023-02-12T19:14:07.140Z,12.95
2023-02-12T19:16:35.247Z,12.71
2023-02-12T19:19:03.225Z,12.76
2023-02-12T19:21:31.328Z,12.78
2023-02-12T19:24:02.261Z,12.95
2023-02-12T19:26:31.307Z,12.82
2023-02-12T19:29:00.125Z,12.63
2023-02-12T19:31:31.943Z,12.51
2023-02-12T19:34:03.627Z,12.50
2023-02-12T19:36:33.646Z,12.40
2023-02-12T19:39:02.694Z,12.21
2023-02-12T19:41:31.299Z,11.95
2023-02-12T19:44:01.392Z,12.10
2023-02-12T19:46:31.423Z,12.05
2023-02-12T19:49:02.274Z,11.94
2023-02-12T19:51:31.173Z,11.79
2023-02-12T19:54:04.877Z,11.83
2023-02-12T19:56:35.526Z,11.93
2023-02-12T19:59:05.482Z,12.04
2023-02-12T20:01:34.213Z,11.98
2023-02-12T20:04:04.122Z,12.06
2023-02-12T20:06:37.346Z,12.07
2023-02-12T20:09:06.521Z,12.17
2023-02-12T20:11:39.840Z,11.98
2023-02-12T20:14:10.572Z,12.05
2023-02-12T20:16:41.750Z,12.11
2023-02-12T20:19:12.895Z,12.05
2023-02-12T20:21:43.094Z,11.91
2023-02-12T20:24:11.153Z,12.03
2023-02-12T20:26:39.672Z,11.93
2023-02-12T20:29:07.708Z,11.65
2023-02-12T20:31:37.376Z,11.34
2023-02-12T20:34:09.000Z,11.43
2023-02-12T20:36:39.528Z,11.27
2023-02-12T20:39:10.199Z,11.33
2023-02-12T20:41:38.271Z,11.39
2023-02-12T20:44:09.062Z,11.24
2023-02-12T20:46:39.932Z,11.39
2023-02-12T20:49:08.108Z,11.32
2023-02-12T20:51:35.983Z,11.22
2023-02-12T20:54:04.146Z,11.14
2023-02-12T20:56:36.112Z,11.10
2023-02-12T20:59:05.520Z,11.06
2023-02-12T21:01:39.698Z,10.91
2023-02-12T21:04:11.399Z,11.00
2023-02-12T21:06:40.784Z,10.94
2023-02-12T21:09:10.538Z,11.27
2023-02-12T21:11:40.143Z,10.85
2023-02-12T21:14:21.760Z,11.00
2023-02-12T21:16:51.996Z,11.18
2023-02-12T21:19:19.730Z,11.11
2023-02-12T21:21:48.014Z,10.94
2023-02-12T21:24:21.858Z,10.98
2023-02-12T21:26:51.319Z,11.00
2023-02-12T21:29:20.163Z,10.82
2023-02-12T21:31:50.506Z,10.68
2023-02-12T21:34:21.734Z,10.70
2023-02-12T21:36:51.223Z,10.55
2023-02-12T21:39:26.412Z,10.42
2023-02-12T21:41:57.416Z,10.35
2023-02-12T21:44:26.231Z,10.34
2023-02-12T21:46:54.865Z,10.25
2023-02-12T21:49:26.660Z,10.29
2023-02-12T21:52:02.352Z,10.24
2023-02-12T21:54:30.954Z,10.19
2023-02-12T21:56:59.429Z,10.37
2023-02-12T21:59:30.714Z,10.41
2023-02-12T22:02:00.837Z,10.08
2023-02-12T22:04:29.456Z,9.93
2023-02-12T22:06:58.275Z,9.86
2023-02-12T22:09:26.269Z,10.01
2023-02-12T22:11:54.279Z,10.16
2023-02-12T22:14:22.741Z,9.91
2023-02-12T22:16:50.947Z,9.87
2023-02-12T22:19:19.214Z,9.82
2023-02-12T22:21:51.642Z,9.90
2023-02-12T22:24:20.716Z,10.09
2023-02-12T22:26:48.520Z,10.04
2023-02-12T22:29:16.740Z,10.06
2023-02-12T22:31:46.879Z,10.07
2023-02-12T22:34:17.162Z,9.96
2023-02-12T22:36:45.458Z,9.87
2023-02-12T22:39:14.402Z,9.83
2023-02-12T22:41:42.682Z,9.75
2023-02-12T22:44:12.398Z,9.58
2023-02-12T22:46:41.766Z,9.70
2023-02-12T22:49:10.311Z,9.76
2023-02-12T22:51:39.868Z,9.64
2023-02-12T22:54:12.571Z,9.52
2023-02-12T22:56:41.090Z,9.66
2023-02-12T22:59:11.344Z,9.46
2023-02-12T23:01:40.046Z,9.31
2023-02-12T23:04:08.327Z,9.34
2023-02-12T23:06:36.293Z,9.32
2023-02-12T23:09:04.920Z,9.10
2023-02-12T23:11:34.013Z,9.01
2023-02-12T23:14:02.012Z,8.92
2023-02-12T23:16:29.972Z,8.94
2023-02-12T23:19:00.207Z,8.84
2023-02-12T23:21:30.428Z,9.05
2023-02-12T23:24:02.165Z,8.99
2023-02-12T23:26:30.570Z,8.94
2023-02-12T23:28:58.857Z,8.85
2023-02-12T23:31:26.893Z,8.97
2023-02-12T23:33:54.982Z,8.76
2023-02-12T23:36:22.829Z,8.63
2023-02-12T23:38:50.803Z,8.56
2023-02-12T23:41:18.737Z,8.55
2023-02-12T23:43:46.632Z,8.50
2023-02-12T23:46:14.628Z,8.60
2023-02-12T23:48:42.571Z,8.54
2023-02-12T23:51:10.699Z,8.58
2023-02-12T23:53:38.651Z,8.60
2023-02-12T23:56:07.155Z,8.48
2023-02-12T23:58:35.025Z,8.40
